createdAt,value
2017-12-21T00:02:21.025Z,59.04
2017-12-21T00:04:47.385Z,58.51
2017-12-21T00:07:13.762Z,58.26
2017-12-21T00:09:40.150Z,58.88
2017-12-21T00:12:06.625Z,58.09
2017-12-21T00:14:33.040Z,58.01
2017-12-21T00:16:59.462Z,58.32
2017-12-21T00:19:25.881Z,58.06
2017-12-21T00:21:52.262Z,59.15
2017-12-21T00:24:18.621Z,59.17
2017-12-21T00:26:45.011Z,58.79
2017-12-21T00:29:11.397Z,57.62
2017-12-21T00:31:37.742Z,57.54
2017-12-21T00:34:04.076Z,57.52
2017-12-21T00:36:30.449Z,59.76
2017-12-21T00:38:56.790Z,63.45
2017-12-21T00:41:23.146Z,62.32
2017-12-21T00:43:49.525Z,61.20
2017-12-21T00:46:15.889Z,61.26
2017-12-21T00:48:42.224Z,68.73
2017-12-21T00:51:08.597Z,63.98
2017-12-21T00:53:34.928Z,61.82
2017-12-21T00:56:01.256Z,60.99
2017-12-21T00:58:27.669Z,61.45
2017-12-21T01:00:54.018Z,62.81
2017-12-21T01:03:20.483Z,61.37
2017-12-21T01:05:46.850Z,61.31
2017-12-21T01:08:13.176Z,62.08
2017-12-21T01:10:39.508Z,62.22
2017-12-21T01:13:05.914Z,62.86
2017-12-21T01:15:32.275Z,63.27
2017-12-21T01:17:58.653Z,65.89
2017-12-21T01:20:25.032Z,63.12
2017-12-21T01:22:51.369Z,62.99
2017-12-21T01:25:17.713Z,62.82
2017-12-21T01:27:44.095Z,63.06
2017-12-21T01:30:10.437Z,63.87
2017-12-21T01:32:36.794Z,63.25
2017-12-21T01:35:03.161Z,63.05
2017-12-21T01:37:29.620Z,62.95
2017-12-21T01:39:56.127Z,63.51
2017-12-21T01:42:22.598Z,63.20
2017-12-21T01:44:49.030Z,63.92
2017-12-21T01:47:15.393Z,63.06
2017-12-21T01:49:41.845Z,62.88
2017-12-21T01:52:08.256Z,62.74
2017-12-21T01:54:34.593Z,63.50
2017-12-21T01:57:01.013Z,63.29
2017-12-21T01:59:27.394Z,63.75
2017-12-21T02:01:53.757Z,62.02
2017-12-21T02:04:20.245Z,63.45
2017-12-21T02:06:46.645Z,60.75
2017-12-21T02:09:13.022Z,62.17
2017-12-21T02:11:39.479Z,60.93
2017-12-21T02:14:05.861Z,60.74
2017-12-21T02:16:32.220Z,60.05
2017-12-21T02:18:58.594Z,63.82
2017-12-21T02:21:25.009Z,62.98
2017-12-21T02:23:51.429Z,59.82
2017-12-21T02:26:17.889Z,57.63
2017-12-21T02:28:44.489Z,58.39
2017-12-21T02:31:10.916Z,58.27
2017-12-21T02:33:37.390Z,58.67
2017-12-21T02:36:03.810Z,59.04
2017-12-21T02:38:30.225Z,60.60
2017-12-21T02:40:56.681Z,59.66
2017-12-21T02:43:23.213Z,58.51
2017-12-21T02:45:49.640Z,58.99
2017-12-21T02:48:16.261Z,58.65
2017-12-21T02:50:42.692Z,59.04
2017-12-21T02:53:09.124Z,59.47
2017-12-21T02:55:35.569Z,59.20
2017-12-21T02:58:01.970Z,59.45
2017-12-21T03:00:28.402Z,59.12
2017-12-21T03:02:54.861Z,61.33
2017-12-21T03:05:21.270Z,59.39
2017-12-21T03:07:47.750Z,59.62
2017-12-21T03:10:14.241Z,59.12
2017-12-21T03:12:40.657Z,59.15
2017-12-21T03:15:07.072Z,60.08
2017-12-21T03:17:33.465Z,58.28
2017-12-21T03:20:00.021Z,59.22
2017-12-21T03:22:26.405Z,62.99
2017-12-21T03:24:52.837Z,57.59
2017-12-21T03:27:19.229Z,57.93
2017-12-21T03:29:45.629Z,59.52
2017-12-21T03:32:12.058Z,57.36
2017-12-21T03:34:38.401Z,61.16
2017-12-21T03:37:04.738Z,58.39
2017-12-21T03:39:31.156Z,56.96
2017-12-21T03:41:57.542Z,62.76
2017-12-21T03:44:23.881Z,59.17
2017-12-21T03:46:50.257Z,59.92
2017-12-21T03:49:16.614Z,58.43
2017-12-21T03:51:43.037Z,57.78
2017-12-21T03:54:09.573Z,61.87
2017-12-21T03:56:35.941Z,62.10
2017-12-21T03:59:02.393Z,59.73
2017-12-21T04:01:28.769Z,57.87
2017-12-21T04:03:55.146Z,58.27
2017-12-21T04:06:21.509Z,60.88
2017-12-21T04:08:47.902Z,60.38
2017-12-21T04:11:14.284Z,57.66
2017-12-21T04:13:40.628Z,60.43
2017-12-21T04:16:06.998Z,57.76
2017-12-21T04:18:33.381Z,57.39
2017-12-21T04:20:59.726Z,58.45
2017-12-21T04:23:26.090Z,56.28
2017-12-21T04:25:52.421Z,58.55
2017-12-21T04:28:18.874Z,58.26
2017-12-21T04:30:45.313Z,57.97
2017-12-21T04:33:11.709Z,57.34
2017-12-21T04:35:38.044Z,61.70
2017-12-21T04:38:04.479Z,56.55
2017-12-21T04:40:30.864Z,59.30
2017-12-21T04:42:57.236Z,57.27
2017-12-21T04:45:23.653Z,56.35
2017-12-21T04:47:50.013Z,59.81
2017-12-21T04:50:16.361Z,57.95
2017-12-21T04:52:42.818Z,56.23
2017-12-21T04:55:09.308Z,56.51
2017-12-21T04:57:35.733Z,60.41
2017-12-21T05:00:02.175Z,57.56
2017-12-21T05:02:28.585Z,57.33
2017-12-21T05:04:54.948Z,55.53
2017-12-21T05:07:21.353Z,56.52
2017-12-21T05:09:47.746Z,57.25
2017-12-21T05:12:14.161Z,56.56
2017-12-21T05:14:40.557Z,57.13
2017-12-21T05:17:06.904Z,59.52
2017-12-21T05:19:33.257Z,57.24
2017-12-21T05:21:59.673Z,57.99
2017-12-21T05:24:32.964Z,60.06
2017-12-21T05:26:59.345Z,58.05
2017-12-21T05:29:25.769Z,59.87
2017-12-21T05:31:52.108Z,60.35
2017-12-21T05:34:18.433Z,60.71
2017-12-21T05:36:44.824Z,59.91
2017-12-21T05:39:11.161Z,59.98
2017-12-21T05:41:37.501Z,60.61
2017-12-21T05:44:03.886Z,59.47
2017-12-21T05:46:30.224Z,60.17
2017-12-21T05:48:56.787Z,62.71
2017-12-21T05:51:23.182Z,62.22
2017-12-21T05:53:49.548Z,62.37
2017-12-21T05:56:15.921Z,60.52
2017-12-21T05:58:42.322Z,59.07
2017-12-21T06:01:08.741Z,60.80
2017-12-21T06:03:35.185Z,58.67
2017-12-21T06:06:01.574Z,59.39
2017-12-21T06:08:27.939Z,58.79
2017-12-21T06:10:54.281Z,59.51
2017-12-21T06:13:20.700Z,62.68
2017-12-21T06:15:47.053Z,59.81
2017-12-21T06:18:13.409Z,60.67
2017-12-21T06:20:39.764Z,61.54
2017-12-21T06:23:06.089Z,60.65
2017-12-21T06:25:32.420Z,64.31
2017-12-21T06:27:58.792Z,63.09
2017-12-21T06:30:25.144Z,59.25
2017-12-21T06:32:51.486Z,58.51
2017-12-21T06:35:17.872Z,59.77
2017-12-21T06:37:44.214Z,65.61
2017-12-21T06:40:10.789Z,59.18
2017-12-21T06:42:37.183Z,58.30
2017-12-21T06:45:03.561Z,58.27
2017-12-21T06:47:29.898Z,58.54
2017-12-21T06:49:56.319Z,58.42
2017-12-21T06:52:22.857Z,59.53
2017-12-21T06:54:49.626Z,59.45
2017-12-21T06:57:16.034Z,59.38
2017-12-21T06:59:42.361Z,60.07
2017-12-21T07:02:08.724Z,58.08
2017-12-21T07:04:35.091Z,56.97
2017-12-21T07:07:01.441Z,57.90
2017-12-21T07:09:27.793Z,59.22
2017-12-21T07:11:54.201Z,59.16
2017-12-21T07:14:20.512Z,59.51
2017-12-21T07:16:46.869Z,59.11
2017-12-21T07:19:13.261Z,62.93
2017-12-21T07:21:39.610Z,60.35
2017-12-21T07:24:05.953Z,59.49
2017-12-21T07:26:32.321Z,59.40
2017-12-21T07:28:58.849Z,63.28
2017-12-21T07:31:25.176Z,60.04
2017-12-21T07:33:51.541Z,60.82
2017-12-21T07:36:18.040Z,59.14
2017-12-21T07:38:44.479Z,61.63
2017-12-21T07:41:10.870Z,61.75
2017-12-21T07:43:37.218Z,59.76
2017-12-21T07:46:03.545Z,63.02
2017-12-21T07:48:29.930Z,60.12
2017-12-21T07:50:56.257Z,57.77
2017-12-21T07:53:22.666Z,58.07
2017-12-21T07:55:49.063Z,60.21
2017-12-21T07:58:15.396Z,59.38
2017-12-21T08:00:41.762Z,60.92
2017-12-21T08:03:08.137Z,60.12
2017-12-21T08:05:34.474Z,58.87
2017-12-21T08:08:00.897Z,60.05
2017-12-21T08:10:27.307Z,58.52
2017-12-21T08:12:53.633Z,59.79
2017-12-21T08:15:19.977Z,60.46
2017-12-21T08:17:46.425Z,60.95
2017-12-21T08:20:12.821Z,59.06
2017-12-21T08:22:39.352Z,58.03
2017-12-21T08:25:05.724Z,58.46
2017-12-21T08:27:32.086Z,64.11
2017-12-21T08:29:58.450Z,59.27
2017-12-21T08:32:24.804Z,59.53
2017-12-21T08:34:51.134Z,60.56
2017-12-21T08:37:17.464Z,60.42
2017-12-21T08:39:43.834Z,60.45
2017-12-21T08:42:10.157Z,60.61
2017-12-21T08:44:36.500Z,60.90
2017-12-21T08:47:02.969Z,60.01
2017-12-21T08:49:29.358Z,63.11
2017-12-21T08:51:55.707Z,62.57
2017-12-21T08:54:22.104Z,59.79
2017-12-21T08:56:48.442Z,58.79
2017-12-21T08:59:14.774Z,61.04
2017-12-21T09:01:41.142Z,58.39
2017-12-21T09:04:07.489Z,57.92
2017-12-21T09:06:33.844Z,58.14
2017-12-21T09:09:00.216Z,58.34
2017-12-21T09:11:26.665Z,59.17
2017-12-21T09:13:53.022Z,60.56
2017-12-21T09:16:19.489Z,57.58
2017-12-21T09:18:45.911Z,58.65
2017-12-21T09:21:12.277Z,56.14
2017-12-21T09:23:38.809Z,56.97
2017-12-21T09:26:05.176Z,58.59
2017-12-21T09:28:31.645Z,57.52
2017-12-21T09:30:58.094Z,58.26
2017-12-21T09:33:24.482Z,58.49
2017-12-21T09:35:50.969Z,58.54
2017-12-21T09:38:17.394Z,61.21
2017-12-21T09:40:44.029Z,60.24
2017-12-21T09:43:10.609Z,55.78
2017-12-21T09:45:37.021Z,57.51
2017-12-21T09:48:03.392Z,56.53
2017-12-21T09:50:29.720Z,58.11
2017-12-21T09:52:56.094Z,56.20
2017-12-21T09:55:22.429Z,56.05
2017-12-21T09:57:48.801Z,54.16
2017-12-21T10:00:15.197Z,54.92
2017-12-21T10:02:41.630Z,55.19
2017-12-21T10:05:07.990Z,60.09
2017-12-21T10:07:34.728Z,57.32
2017-12-21T10:10:01.086Z,54.98
2017-12-21T10:12:27.474Z,54.23
2017-12-21T10:14:53.858Z,53.33
2017-12-21T10:17:20.206Z,52.63
2017-12-21T10:19:46.533Z,53.41
2017-12-21T10:22:12.925Z,58.62
2017-12-21T10:24:39.381Z,55.42
2017-12-21T10:27:05.762Z,58.48
2017-12-21T10:29:32.448Z,55.58
2017-12-21T10:31:58.841Z,57.15
2017-12-21T10:34:25.474Z,54.53
2017-12-21T10:36:51.854Z,54.16
2017-12-21T10:39:18.239Z,55.92
2017-12-21T10:41:44.615Z,56.91
2017-12-21T10:44:11.014Z,54.25
2017-12-21T10:46:37.413Z,54.34
2017-12-21T10:49:03.754Z,54.06
2017-12-21T10:51:30.366Z,59.08
2017-12-21T10:53:57.003Z,53.69
2017-12-21T10:56:23.487Z,53.20
2017-12-21T10:58:49.894Z,53.77
2017-12-21T11:01:16.386Z,52.82
2017-12-21T11:03:42.777Z,54.76
2017-12-21T11:06:09.177Z,53.15
2017-12-21T11:08:35.577Z,53.52
2017-12-21T11:11:01.977Z,54.50
2017-12-21T11:13:28.426Z,57.40
2017-12-21T11:15:54.845Z,52.79
2017-12-21T11:18:21.238Z,52.38
2017-12-21T11:20:47.650Z,56.29
2017-12-21T11:23:14.053Z,54.92
2017-12-21T11:25:40.435Z,54.57
2017-12-21T11:28:06.902Z,60.94
2017-12-21T11:30:33.326Z,51.36
2017-12-21T11:32:59.746Z,53.07
2017-12-21T11:35:26.108Z,51.96
2017-12-21T11:37:52.504Z,53.01
2017-12-21T11:40:18.903Z,50.76
2017-12-21T11:42:45.380Z,52.62
2017-12-21T11:45:11.800Z,51.22
2017-12-21T11:47:38.161Z,51.03
2017-12-21T11:50:04.541Z,51.55
2017-12-21T11:52:31.154Z,53.15
2017-12-21T11:54:57.541Z,56.24
2017-12-21T11:57:23.998Z,52.36
2017-12-21T11:59:50.377Z,52.12
2017-12-21T12:02:16.725Z,55.96
2017-12-21T12:04:43.135Z,51.85
2017-12-21T12:07:09.576Z,54.97
2017-12-21T12:09:35.961Z,50.85
2017-12-21T12:12:02.377Z,51.84
2017-12-21T12:14:28.753Z,55.43
2017-12-21T12:16:55.098Z,50.86
2017-12-21T12:19:21.493Z,50.60
2017-12-21T12:21:47.842Z,55.01
2017-12-21T12:24:14.181Z,51.23
2017-12-21T12:26:40.593Z,50.47
2017-12-21T12:29:06.971Z,55.26
2017-12-21T12:31:33.341Z,51.58
2017-12-21T12:33:59.702Z,52.11
2017-12-21T12:36:26.108Z,51.29
2017-12-21T12:38:52.650Z,51.74
2017-12-21T12:41:19.027Z,58.26
2017-12-21T12:43:45.458Z,52.53
2017-12-21T12:46:11.873Z,53.76
2017-12-21T12:48:38.320Z,51.98
2017-12-21T12:51:04.654Z,51.94
2017-12-21T12:53:30.985Z,51.30
2017-12-21T12:55:57.497Z,52.43
2017-12-21T12:58:23.829Z,53.76
2017-12-21T13:00:50.185Z,55.63
2017-12-21T13:03:16.568Z,56.03
2017-12-21T13:05:42.928Z,52.57
2017-12-21T13:08:09.279Z,53.84
2017-12-21T13:10:35.665Z,57.00
2017-12-21T13:13:02.050Z,53.98
2017-12-21T13:15:28.422Z,52.96
2017-12-21T13:17:54.806Z,52.72
2017-12-21T13:20:21.160Z,52.39
2017-12-21T13:22:47.521Z,57.91
2017-12-21T13:25:13.904Z,52.05
2017-12-21T13:27:40.290Z,52.48
2017-12-21T13:30:06.645Z,52.43
2017-12-21T13:32:33.682Z,55.66
2017-12-21T13:35:00.033Z,52.44
2017-12-21T13:37:26.377Z,55.08
2017-12-21T13:39:52.970Z,55.92
2017-12-21T13:42:19.492Z,52.74
2017-12-21T13:44:45.953Z,54.53
2017-12-21T13:47:12.469Z,53.01
2017-12-21T13:49:38.925Z,51.93
2017-12-21T13:52:05.508Z,54.39
2017-12-21T13:54:31.924Z,52.32
2017-12-21T13:56:58.254Z,54.31
2017-12-21T13:59:24.741Z,50.93
2017-12-21T14:01:51.194Z,54.32
2017-12-21T14:04:17.693Z,51.39
2017-12-21T14:06:44.046Z,52.61
2017-12-21T14:09:10.465Z,52.61
2017-12-21T14:11:36.805Z,59.90
2017-12-21T14:14:03.305Z,53.39
2017-12-21T14:16:29.685Z,52.03
2017-12-21T14:18:56.009Z,53.51
2017-12-21T14:21:22.452Z,51.34
2017-12-21T14:23:48.845Z,54.47
2017-12-21T14:26:15.193Z,51.50
2017-12-21T14:28:41.537Z,51.24
2017-12-21T14:31:07.970Z,53.96
2017-12-21T14:33:34.466Z,54.90
2017-12-21T14:36:00.830Z,54.89
2017-12-21T14:38:27.202Z,51.93
2017-12-21T14:40:53.534Z,51.52
2017-12-21T14:43:19.876Z,52.37
2017-12-21T14:45:46.248Z,54.94
2017-12-21T14:48:12.605Z,53.61
2017-12-21T14:50:38.957Z,54.65
2017-12-21T14:53:05.370Z,52.32
2017-12-21T14:55:31.801Z,53.24
2017-12-21T14:57:58.126Z,53.25
2017-12-21T15:00:24.486Z,56.46
2017-12-21T15:02:50.861Z,54.89
2017-12-21T15:05:17.201Z,53.69
2017-12-21T15:07:43.581Z,56.55
2017-12-21T15:10:09.918Z,53.71
2017-12-21T15:12:36.368Z,58.28
2017-12-21T15:15:02.777Z,56.65
2017-12-21T15:17:29.142Z,55.20
2017-12-21T15:19:55.477Z,52.70
2017-12-21T15:22:21.849Z,53.30
2017-12-21T15:24:48.257Z,53.86
2017-12-21T15:27:14.624Z,57.25
2017-12-21T15:29:40.992Z,56.40
2017-12-21T15:32:07.628Z,54.95
2017-12-21T15:34:34.079Z,53.64
2017-12-21T15:37:00.433Z,53.21
2017-12-21T15:39:26.770Z,57.54
2017-12-21T15:41:53.109Z,52.43
2017-12-21T15:44:19.513Z,54.64
2017-12-21T15:46:45.853Z,55.21
2017-12-21T15:49:12.237Z,54.56
2017-12-21T15:51:38.636Z,53.27
2017-12-21T15:54:04.970Z,53.52
2017-12-21T15:56:31.357Z,55.45
2017-12-21T15:58:57.761Z,54.45
2017-12-21T16:01:24.118Z,55.30
2017-12-21T16:03:50.465Z,52.34
2017-12-21T16:06:16.846Z,53.42
2017-12-21T16:08:43.310Z,54.37
2017-12-21T16:11:09.721Z,57.78
2017-12-21T16:13:36.149Z,52.71
2017-12-21T16:16:02.529Z,53.01
2017-12-21T16:18:28.893Z,53.35
2017-12-21T16:20:55.301Z,53.37
2017-12-21T16:23:21.633Z,53.13
2017-12-21T16:25:48.897Z,53.40
2017-12-21T16:28:15.311Z,53.79
2017-12-21T16:30:41.701Z,53.74
2017-12-21T16:33:08.130Z,55.12
2017-12-21T16:35:34.589Z,55.12
2017-12-21T16:38:00.954Z,54.91
2017-12-21T16:40:27.368Z,54.29
2017-12-21T16:42:53.845Z,54.98
2017-12-21T16:45:20.218Z,54.74
2017-12-21T16:47:46.593Z,55.93
2017-12-21T16:50:13.058Z,55.95
2017-12-21T16:52:39.428Z,56.43
2017-12-21T16:55:05.781Z,56.00
2017-12-21T16:57:32.213Z,56.21
2017-12-21T16:59:58.597Z,56.52
2017-12-21T17:02:24.950Z,56.80
2017-12-21T17:04:51.418Z,56.66
2017-12-21T17:07:17.834Z,56.63
2017-12-21T17:09:44.218Z,56.50
2017-12-21T17:12:10.629Z,56.94
2017-12-21T17:14:36.993Z,56.98
2017-12-21T17:17:03.413Z,56.76
2017-12-21T17:19:29.810Z,56.63
2017-12-21T17:21:56.193Z,56.64
2017-12-21T17:24:22.595Z,57.01
2017-12-21T17:26:48.986Z,57.07
2017-12-21T17:29:15.395Z,56.36
2017-12-21T17:31:41.765Z,56.42
2017-12-21T17:34:08.193Z,56.91
2017-12-21T17:36:34.643Z,57.21
2017-12-21T17:39:00.986Z,57.17
2017-12-21T17:41:27.409Z,57.63
2017-12-21T17:43:53.782Z,57.25
2017-12-21T17:46:20.153Z,56.77
2017-12-21T17:48:46.554Z,56.81
2017-12-21T17:51:12.961Z,56.45
2017-12-21T17:53:39.309Z,57.43
2017-12-21T17:56:05.770Z,57.64
2017-12-21T17:58:32.141Z,57.18
2017-12-21T18:00:58.533Z,56.50
2017-12-21T18:03:24.930Z,56.47
2017-12-21T18:05:51.314Z,56.51
2017-12-21T18:08:17.698Z,56.45
2017-12-21T18:10:44.110Z,56.27
2017-12-21T18:13:10.481Z,56.56
2017-12-21T18:15:37.054Z,57.00
2017-12-21T18:18:03.597Z,57.22
2017-12-21T18:20:29.962Z,57.58
2017-12-21T18:22:56.342Z,57.34
2017-12-21T18:25:22.770Z,57.37
2017-12-21T18:27:49.115Z,56.88
2017-12-21T18:30:15.528Z,57.17
2017-12-21T18:32:41.948Z,57.84
2017-12-21T18:35:08.302Z,57.77
2017-12-21T18:37:34.645Z,58.62
2017-12-21T18:40:01.083Z,65.70
2017-12-21T18:42:27.478Z,57.75
2017-12-21T18:44:53.854Z,57.41
2017-12-21T18:47:20.318Z,57.29
2017-12-21T18:49:46.682Z,58.02
2017-12-21T18:52:13.059Z,58.35
2017-12-21T18:54:39.450Z,58.38
2017-12-21T18:57:06.405Z,57.96
2017-12-21T18:59:33.779Z,58.66
2017-12-21T19:02:00.205Z,59.04
2017-12-21T19:04:26.625Z,58.70
2017-12-21T19:06:53.140Z,58.96
2017-12-21T19:09:19.554Z,59.09
2017-12-21T19:11:45.942Z,58.98
2017-12-21T19:14:12.378Z,59.24
2017-12-21T19:16:38.808Z,58.85
2017-12-21T19:19:05.178Z,58.98
2017-12-21T19:21:31.541Z,59.78
2017-12-21T19:23:57.945Z,59.59
2017-12-21T19:26:24.334Z,59.17
2017-12-21T19:28:50.914Z,59.19
2017-12-21T19:31:17.306Z,59.70
2017-12-21T19:33:43.695Z,59.97
2017-12-21T19:36:10.065Z,60.46
2017-12-21T19:38:36.482Z,59.85
2017-12-21T19:41:02.881Z,60.05
2017-12-21T19:43:29.250Z,60.15
2017-12-21T19:45:55.710Z,59.99
2017-12-21T19:48:22.123Z,60.23
2017-12-21T19:50:48.497Z,60.63
2017-12-21T19:53:14.890Z,60.88
2017-12-21T19:55:41.269Z,60.53
2017-12-21T19:58:07.638Z,61.38
2017-12-21T20:00:34.073Z,61.23
2017-12-21T20:03:00.437Z,60.84
2017-12-21T20:05:26.800Z,61.19
2017-12-21T20:07:53.189Z,61.38
2017-12-21T20:10:19.544Z,61.03
2017-12-21T20:12:45.941Z,61.17
2017-12-21T20:15:12.353Z,60.98
2017-12-21T20:17:39.557Z,60.77
2017-12-21T20:20:05.905Z,60.68
2017-12-21T20:22:32.851Z,60.55
2017-12-21T20:25:00.102Z,60.81
2017-12-21T20:27:26.462Z,60.70
2017-12-21T20:29:52.849Z,61.23
2017-12-21T20:32:19.223Z,60.56
2017-12-21T20:34:45.677Z,60.13
2017-12-21T20:37:12.140Z,60.02
2017-12-21T20:39:38.534Z,60.39
2017-12-21T20:42:04.910Z,60.19
2017-12-21T20:44:31.314Z,60.50
2017-12-21T20:46:57.719Z,60.68
2017-12-21T20:49:24.058Z,61.15
2017-12-21T20:51:50.461Z,61.43
2017-12-21T20:54:16.825Z,62.48
2017-12-21T20:56:43.202Z,62.76
2017-12-21T20:59:09.590Z,62.04
2017-12-21T21:01:35.962Z,61.79
2017-12-21T21:04:02.338Z,61.96
2017-12-21T21:06:28.725Z,62.27
2017-12-21T21:08:55.105Z,61.55
2017-12-21T21:11:21.474Z,62.56
2017-12-21T21:13:47.877Z,61.71
2017-12-21T21:16:14.303Z,61.58
2017-12-21T21:18:40.717Z,61.74
2017-12-21T21:21:07.125Z,61.33
2017-12-21T21:23:33.509Z,61.57
2017-12-21T21:26:00.585Z,61.89
2017-12-21T21:28:26.957Z,62.46
2017-12-21T21:30:53.292Z,61.95
2017-12-21T21:33:19.654Z,61.67
2017-12-21T21:35:46.076Z,61.86
2017-12-21T21:38:12.509Z,61.15
2017-12-21T21:40:38.872Z,64.98
2017-12-21T21:43:05.292Z,61.25
2017-12-21T21:45:31.657Z,59.94
2017-12-21T21:47:58.020Z,58.98
2017-12-21T21:50:24.610Z,59.84
2017-12-21T21:52:50.980Z,59.66
2017-12-21T21:55:17.349Z,60.40
2017-12-21T21:57:43.785Z,61.12
2017-12-21T22:00:10.185Z,61.42
2017-12-21T22:02:36.605Z,61.08
2017-12-21T22:05:03.044Z,61.03
2017-12-21T22:07:29.429Z,61.09
2017-12-21T22:09:55.816Z,60.97
2017-12-21T22:12:22.217Z,61.55
2017-12-21T22:14:48.569Z,61.87
2017-12-21T22:17:14.908Z,61.82
2017-12-21T22:19:41.301Z,61.68
2017-12-21T22:22:07.682Z,61.24
2017-12-21T22:24:34.070Z,61.77
2017-12-21T22:27:00.460Z,61.41
2017-12-21T22:29:26.809Z,61.11
2017-12-21T22:31:53.203Z,61.69
2017-12-21T22:34:19.617Z,61.43
2017-12-21T22:36:45.985Z,61.36
2017-12-21T22:39:12.360Z,61.75
2017-12-21T22:41:38.768Z,61.85
2017-12-21T22:44:05.116Z,62.02
2017-12-21T22:46:31.494Z,60.74
2017-12-21T22:48:57.949Z,60.02
2017-12-21T22:51:24.309Z,60.61
2017-12-21T22:53:50.689Z,60.12
2017-12-21T22:56:17.064Z,60.31
2017-12-21T22:58:43.430Z,60.90
2017-12-21T23:01:09.792Z,60.13
2017-12-21T23:03:36.277Z,60.29
2017-12-21T23:06:02.682Z,60.34
2017-12-21T23:08:29.040Z,60.66
2017-12-21T23:10:55.469Z,61.46
2017-12-21T23:13:21.821Z,61.25
2017-12-21T23:15:48.189Z,60.55
2017-12-21T23:18:14.610Z,61.41
2017-12-21T23:20:40.945Z,61.19
2017-12-21T23:23:07.338Z,60.63
2017-12-21T23:25:33.717Z,60.67
2017-12-21T23:28:00.093Z,62.44
2017-12-21T23:30:26.476Z,62.56
2017-12-21T23:32:59.767Z,61.72
2017-12-21T23:35:26.145Z,61.32
2017-12-21T23:37:52.525Z,61.15
2017-12-21T23:40:18.911Z,60.98
2017-12-21T23:42:45.265Z,61.07
2017-12-21T23:45:11.649Z,61.24
2017-12-21T23:47:38.049Z,60.80
2017-12-21T23:50:04.432Z,60.44
2017-12-21T23:52:30.821Z,60.48
2017-12-21T23:54:57.245Z,60.29
2017-12-21T23:57:23.613Z,60.12
2017-12-21T23:59:49.961Z,60.53
